West Branch, Iowa
Current Conditions -  °F | °C
As of 5:02 AM on Saturday 22 Nov 2014 (Local Time) from KIOW Reporting Station
Haze Haze  
Wind Chill: 34°   Ceiling: 900
Heat Index: 34°   Visibility: 4mi
Dew Point: 34°   Wind: 3mph
Humidity: 100%   Direction: 150°SSE
Pressure: 30"   Gusts: NA
Location:  41.67°N, 91.35°W
Report Text: KIOW 221102Z AUTO 15003KT 4SM BR OVC009 01/01 A3000 RMK AO2 T00110011
Loading
Personal Weather Stations






























Interactive Weather Map New forecast layout! Learn more

10-Day Weather Forecast

Advertisements
Track Severe Weather on mobile